sensor_id;sensor_type;location;lat;lon;timestamp;temperature;humidity
12700;DHT22;6414;49.570;6.060;2022-10-31T00:00:33;10.50;99.90
12700;DHT22;6414;49.570;6.060;2022-10-31T00:03:19;10.50;99.90
12700;DHT22;6414;49.570;6.060;2022-10-31T00:06:05;10.50;99.90
12700;DHT22;6414;49.570;6.060;2022-10-31T00:08:54;10.50;99.90
12700;DHT22;6414;49.570;6.060;2022-10-31T00:11:40;10.60;99.90
12700;DHT22;6414;49.570;6.060;2022-10-31T00:14:25;10.60;99.90
12700;DHT22;6414;49.570;6.060;2022-10-31T00:17:11;10.50;99.90
12700;DHT22;6414;49.570;6.060;2022-10-31T00:19:56;10.50;99.90
12700;DHT22;6414;49.570;6.060;2022-10-31T00:22:41;10.40;99.90
12700;DHT22;6414;49.570;6.060;2022-10-31T00:25:27;10.40;99.90
12700;DHT22;6414;49.570;6.060;2022-10-31T00:28:12;10.40;99.90
12700;DHT22;6414;49.570;6.060;2022-10-31T00:30:58;10.40;99.90
12700;DHT22;6414;49.570;6.060;2022-10-31T00:33:43;10.50;99.90
12700;DHT22;6414;49.570;6.060;2022-10-31T00:36:28;10.60;99.90
12700;DHT22;6414;49.570;6.060;2022-10-31T00:39:14;10.80;99.90
12700;DHT22;6414;49.570;6.060;2022-10-31T00:42:00;10.80;99.90
12700;DHT22;6414;49.570;6.060;2022-10-31T00:44:46;10.60;99.90
12700;DHT22;6414;49.570;6.060;2022-10-31T00:47:31;10.70;99.90
12700;DHT22;6414;49.570;6.060;2022-10-31T00:50:17;10.80;99.90
12700;DHT22;6414;49.570;6.060;2022-10-31T00:53:02;10.90;99.90
12700;DHT22;6414;49.570;6.060;2022-10-31T00:55:47;10.90;99.90
12700;DHT22;6414;49.570;6.060;2022-10-31T00:58:32;10.90;99.90
12700;DHT22;6414;49.570;6.060;2022-10-31T01:01:18;11.00;99.90
12700;DHT22;6414;49.570;6.060;2022-10-31T01:04:03;10.90;99.90
12700;DHT22;6414;49.570;6.060;2022-10-31T01:06:49;10.80;99.90
12700;DHT22;6414;49.570;6.060;2022-10-31T04:25:26;9.90;99.90
12700;DHT22;6414;49.570;6.060;2022-10-31T04:28:11;9.80;99.90
12700;DHT22;6414;49.570;6.060;2022-10-31T04:30:56;9.90;99.90
12700;DHT22;6414;49.570;6.060;2022-10-31T04:33:41;10.00;99.90
12700;DHT22;6414;49.570;6.060;2022-10-31T04:36:27;9.90;99.90
12700;DHT22;6414;49.570;6.060;2022-10-31T04:39:13;9.90;99.90
12700;DHT22;6414;49.570;6.060;2022-10-31T04:41:58;9.90;99.90
12700;DHT22;6414;49.570;6.060;2022-10-31T04:44:43;9.90;99.90
12700;DHT22;6414;49.570;6.060;2022-10-31T04:47:30;9.90;99.90
12700;DHT22;6414;49.570;6.060;2022-10-31T04:50:14;9.90;99.90
12700;DHT22;6414;49.570;6.060;2022-10-31T04:52:59;9.80;99.90
12700;DHT22;6414;49.570;6.060;2022-10-31T04:55:45;9.80;99.90
12700;DHT22;6414;49.570;6.060;2022-10-31T04:58:30;9.80;99.90
12700;DHT22;6414;49.570;6.060;2022-10-31T05:01:16;9.70;99.90
12700;DHT22;6414;49.570;6.060;2022-10-31T05:04:02;9.70;99.90
12700;DHT22;6414;49.570;6.060;2022-10-31T05:06:47;9.70;99.90
12700;DHT22;6414;49.570;6.060;2022-10-31T05:09:33;9.60;99.90
12700;DHT22;6414;49.570;6.060;2022-10-31T05:12:19;9.60;99.90
12700;DHT22;6414;49.570;6.060;2022-10-31T05:15:04;9.60;99.90
12700;DHT22;6414;49.570;6.060;2022-10-31T05:17:50;9.60;99.90
12700;DHT22;6414;49.570;6.060;2022-10-31T05:20:35;9.60;99.90
12700;DHT22;6414;49.570;6.060;2022-10-31T05:23:20;9.60;99.90
12700;DHT22;6414;49.570;6.060;2022-10-31T05:26:06;9.70;99.90
12700;DHT22;6414;49.570;6.060;2022-10-31T05:28:52;9.70;99.90
12700;DHT22;6414;49.570;6.060;2022-10-31T05:31:37;9.70;99.90
12700;DHT22;6414;49.570;6.060;2022-10-31T05:34:22;9.70;99.90
12700;DHT22;6414;49.570;6.060;2022-10-31T05:37:08;9.80;99.90
12700;DHT22;6414;49.570;6.060;2022-10-31T05:39:53;9.80;99.90
12700;DHT22;6414;49.570;6.060;2022-10-31T05:42:39;9.80;99.90
12700;DHT22;6414;49.570;6.060;2022-10-31T05:45:24;9.80;99.90
12700;DHT22;6414;49.570;6.060;2022-10-31T05:48:12;9.80;99.90
12700;DHT22;6414;49.570;6.060;2022-10-31T05:50:54;9.70;99.90
12700;DHT22;6414;49.570;6.060;2022-10-31T05:53:41;9.80;99.90
12700;DHT22;6414;49.570;6.060;2022-10-31T05:56:26;9.80;99.90
12700;DHT22;6414;49.570;6.060;2022-10-31T05:59:12;9.80;99.90
12700;DHT22;6414;49.570;6.060;2022-10-31T06:01:57;9.80;99.90
12700;DHT22;6414;49.570;6.060;2022-10-31T06:04:42;9.80;99.90
12700;DHT22;6414;49.570;6.060;2022-10-31T06:07:31;9.90;99.90
12700;DHT22;6414;49.570;6.060;2022-10-31T06:10:14;9.80;99.90
12700;DHT22;6414;49.570;6.060;2022-10-31T06:12:59;9.80;99.90
12700;DHT22;6414;49.570;6.060;2022-10-31T06:15:44;9.70;99.90
12700;DHT22;6414;49.570;6.060;2022-10-31T06:18:30;9.70;99.90
12700;DHT22;6414;49.570;6.060;2022-10-31T06:21:15;9.70;99.90
12700;DHT22;6414;49.570;6.060;2022-10-31T06:24:01;9.60;99.90
12700;DHT22;6414;49.570;6.060;2022-10-31T06:26:46;9.50;99.90
12700;DHT22;6414;49.570;6.060;2022-10-31T06:29:32;9.50;99.90
12700;DHT22;6414;49.570;6.060;2022-10-31T06:32:17;9.60;99.90
12700;DHT22;6414;49.570;6.060;2022-10-31T06:35:02;9.60;99.90
12700;DHT22;6414;49.570;6.060;2022-10-31T06:37:51;9.60;99.90
12700;DHT22;6414;49.570;6.060;2022-10-31T06:40:36;9.70;99.90
12700;DHT22;6414;49.570;6.060;2022-10-31T06:43:21;9.70;99.90
12700;DHT22;6414;49.570;6.060;2022-10-31T06:46:07;9.70;99.90
12700;DHT22;6414;49.570;6.060;2022-10-31T06:48:52;9.70;99.90
12700;DHT22;6414;49.570;6.060;2022-10-31T06:51:37;9.70;99.90
12700;DHT22;6414;49.570;6.060;2022-10-31T06:54:23;9.70;99.90
12700;DHT22;6414;49.570;6.060;2022-10-31T06:57:08;9.60;99.90
12700;DHT22;6414;49.570;6.060;2022-10-31T06:59:53;9.60;99.90
12700;DHT22;6414;49.570;6.060;2022-10-31T07:02:39;9.50;99.90
12700;DHT22;6414;49.570;6.060;2022-10-31T07:05:24;9.50;99.90
12700;DHT22;6414;49.570;6.060;2022-10-31T07:08:11;9.60;99.90
12700;DHT22;6414;49.570;6.060;2022-10-31T07:10:55;9.50;99.90
12700;DHT22;6414;49.570;6.060;2022-10-31T07:13:40;9.30;99.90
12700;DHT22;6414;49.570;6.060;2022-10-31T07:16:26;9.40;99.90
12700;DHT22;6414;49.570;6.060;2022-10-31T07:19:11;9.50;99.90
12700;DHT22;6414;49.570;6.060;2022-10-31T07:21:56;9.60;99.90
12700;DHT22;6414;49.570;6.060;2022-10-31T07:24:41;9.60;99.90
12700;DHT22;6414;49.570;6.060;2022-10-31T07:27:27;9.70;99.90
12700;DHT22;6414;49.570;6.060;2022-10-31T07:30:13;9.70;99.90
12700;DHT22;6414;49.570;6.060;2022-10-31T07:32:57;9.70;99.90
12700;DHT22;6414;49.570;6.060;2022-10-31T07:35:43;9.70;99.90
12700;DHT22;6414;49.570;6.060;2022-10-31T07:38:28;9.70;99.90
12700;DHT22;6414;49.570;6.060;2022-10-31T07:41:14;9.80;99.90
12700;DHT22;6414;49.570;6.060;2022-10-31T07:43:59;9.80;99.90
12700;DHT22;6414;49.570;6.060;2022-10-31T07:46:44;10.00;99.90
12700;DHT22;6414;49.570;6.060;2022-10-31T07:49:30;10.20;99.90
12700;DHT22;6414;49.570;6.060;2022-10-31T07:52:15;10.30;99.90
12700;DHT22;6414;49.570;6.060;2022-10-31T07:55:00;10.50;99.90
12700;DHT22;6414;49.570;6.060;2022-10-31T07:57:54;10.60;99.90
12700;DHT22;6414;49.570;6.060;2022-10-31T08:00:33;10.70;99.90
12700;DHT22;6414;49.570;6.060;2022-10-31T08:03:18;10.70;99.90
12700;DHT22;6414;49.570;6.060;2022-10-31T08:06:03;10.80;99.90
12700;DHT22;6414;49.570;6.060;2022-10-31T08:08:48;10.80;99.90
12700;DHT22;6414;49.570;6.060;2022-10-31T08:11:34;10.70;99.90
12700;DHT22;6414;49.570;6.060;2022-10-31T08:14:19;10.60;99.90
12700;DHT22;6414;49.570;6.060;2022-10-31T08:17:05;10.80;99.90
12700;DHT22;6414;49.570;6.060;2022-10-31T08:19:50;10.80;99.90
12700;DHT22;6414;49.570;6.060;2022-10-31T08:22:36;11.00;99.90
12700;DHT22;6414;49.570;6.060;2022-10-31T08:25:22;11.10;99.90
12700;DHT22;6414;49.570;6.060;2022-10-31T08:28:08;11.30;99.90
12700;DHT22;6414;49.570;6.060;2022-10-31T08:30:54;11.30;99.90
12700;DHT22;6414;49.570;6.060;2022-10-31T08:33:39;11.30;99.90
12700;DHT22;6414;49.570;6.060;2022-10-31T08:36:24;11.40;99.90
12700;DHT22;6414;49.570;6.060;2022-10-31T08:39:09;11.60;99.90
12700;DHT22;6414;49.570;6.060;2022-10-31T08:41:55;11.60;99.90
12700;DHT22;6414;49.570;6.060;2022-10-31T08:44:40;11.60;99.90
12700;DHT22;6414;49.570;6.060;2022-10-31T08:47:26;11.70;99.90
12700;DHT22;6414;49.570;6.060;2022-10-31T08:50:11;11.70;99.90
12700;DHT22;6414;49.570;6.060;2022-10-31T08:53:00;11.80;99.90
12700;DHT22;6414;49.570;6.060;2022-10-31T08:55:45;11.60;99.90
12700;DHT22;6414;49.570;6.060;2022-10-31T08:58:30;11.70;99.90
12700;DHT22;6414;49.570;6.060;2022-10-31T09:01:15;11.60;99.90
12700;DHT22;6414;49.570;6.060;2022-10-31T09:04:02;11.40;99.90
12700;DHT22;6414;49.570;6.060;2022-10-31T09:06:48;11.50;99.90
12700;DHT22;6414;49.570;6.060;2022-10-31T09:09:33;11.50;99.90
12700;DHT22;6414;49.570;6.060;2022-10-31T09:12:18;11.60;99.90
12700;DHT22;6414;49.570;6.060;2022-10-31T09:15:04;11.50;99.90
12700;DHT22;6414;49.570;6.060;2022-10-31T09:17:49;11.60;99.90
12700;DHT22;6414;49.570;6.060;2022-10-31T09:20:36;12.00;99.90
12700;DHT22;6414;49.570;6.060;2022-10-31T09:23:21;11.90;99.90
12700;DHT22;6414;49.570;6.060;2022-10-31T09:26:06;12.10;99.90
12700;DHT22;6414;49.570;6.060;2022-10-31T09:28:51;12.30;99.90
12700;DHT22;6414;49.570;6.060;2022-10-31T09:31:36;12.60;99.90
12700;DHT22;6414;49.570;6.060;2022-10-31T09:34:22;12.70;99.90
12700;DHT22;6414;49.570;6.060;2022-10-31T09:37:07;12.80;99.90
12700;DHT22;6414;49.570;6.060;2022-10-31T09:39:53;12.90;99.90
12700;DHT22;6414;49.570;6.060;2022-10-31T09:42:50;12.90;99.90
12700;DHT22;6414;49.570;6.060;2022-10-31T09:45:48;13.20;99.90
12700;DHT22;6414;49.570;6.060;2022-10-31T09:49:01;13.30;99.90
12700;DHT22;6414;49.570;6.060;2022-10-31T09:51:45;13.30;99.90
12700;DHT22;6414;49.570;6.060;2022-10-31T09:54:38;13.50;99.90
12700;DHT22;6414;49.570;6.060;2022-10-31T09:57:32;13.70;99.90
12700;DHT22;6414;49.570;6.060;2022-10-31T10:00:16;13.60;99.90
12700;DHT22;6414;49.570;6.060;2022-10-31T10:06:07;13.80;99.90
12700;DHT22;6414;49.570;6.060;2022-10-31T10:08:49;13.90;99.90
12700;DHT22;6414;49.570;6.060;2022-10-31T10:14:39;13.90;99.90
12700;DHT22;6414;49.570;6.060;2022-10-31T10:17:42;13.90;99.90
12700;DHT22;6414;49.570;6.060;2022-10-31T10:20:28;13.80;99.90
12700;DHT22;6414;49.570;6.060;2022-10-31T10:23:19;13.90;99.90
12700;DHT22;6414;49.570;6.060;2022-10-31T10:26:21;14.00;99.90
12700;DHT22;6414;49.570;6.060;2022-10-31T10:32:09;14.00;99.90
12700;DHT22;6414;49.570;6.060;2022-10-31T10:34:51;14.00;99.90
12700;DHT22;6414;49.570;6.060;2022-10-31T10:37:39;14.10;99.90
12700;DHT22;6414;49.570;6.060;2022-10-31T10:40:25;14.20;99.90
12700;DHT22;6414;49.570;6.060;2022-10-31T10:43:21;14.30;99.90
12700;DHT22;6414;49.570;6.060;2022-10-31T10:46:17;14.20;99.90
12700;DHT22;6414;49.570;6.060;2022-10-31T10:58:03;14.30;99.90
12700;DHT22;6414;49.570;6.060;2022-10-31T11:00:48;14.30;99.90
12700;DHT22;6414;49.570;6.060;2022-10-31T11:03:33;14.30;99.90
12700;DHT22;6414;49.570;6.060;2022-10-31T11:06:19;14.30;99.90
12700;DHT22;6414;49.570;6.060;2022-10-31T11:09:10;14.30;99.90
12700;DHT22;6414;49.570;6.060;2022-10-31T11:11:55;14.40;99.90
12700;DHT22;6414;49.570;6.060;2022-10-31T11:14:47;14.40;99.90
12700;DHT22;6414;49.570;6.060;2022-10-31T11:17:30;14.50;99.90
12700;DHT22;6414;49.570;6.060;2022-10-31T11:23:16;14.40;99.90
12700;DHT22;6414;49.570;6.060;2022-10-31T11:25:54;14.30;99.90
12700;DHT22;6414;49.570;6.060;2022-10-31T11:28:34;14.30;99.90
12700;DHT22;6414;49.570;6.060;2022-10-31T11:31:19;14.30;99.90
12700;DHT22;6414;49.570;6.060;2022-10-31T11:34:05;14.30;99.90
12700;DHT22;6414;49.570;6.060;2022-10-31T11:36:50;14.20;99.90
12700;DHT22;6414;49.570;6.060;2022-10-31T11:39:38;14.20;99.90
12700;DHT22;6414;49.570;6.060;2022-10-31T11:42:25;14.20;99.90
12700;DHT22;6414;49.570;6.060;2022-10-31T11:45:16;14.20;99.90
12700;DHT22;6414;49.570;6.060;2022-10-31T11:48:01;14.30;99.90
12700;DHT22;6414;49.570;6.060;2022-10-31T11:50:50;14.20;99.90
12700;DHT22;6414;49.570;6.060;2022-10-31T11:53:34;14.30;99.90
12700;DHT22;6414;49.570;6.060;2022-10-31T11:56:20;14.20;99.90
12700;DHT22;6414;49.570;6.060;2022-10-31T11:59:14;14.40;99.90
12700;DHT22;6414;49.570;6.060;2022-10-31T12:01:52;14.40;99.90
12700;DHT22;6414;49.570;6.060;2022-10-31T12:04:43;14.30;99.90
12700;DHT22;6414;49.570;6.060;2022-10-31T12:07:27;14.40;99.90
12700;DHT22;6414;49.570;6.060;2022-10-31T12:10:13;14.50;99.90
12700;DHT22;6414;49.570;6.060;2022-10-31T12:13:22;14.50;99.90
12700;DHT22;6414;49.570;6.060;2022-10-31T12:16:08;14.40;99.90
12700;DHT22;6414;49.570;6.060;2022-10-31T12:19:01;14.50;99.90
12700;DHT22;6414;49.570;6.060;2022-10-31T12:22:05;14.50;99.90
12700;DHT22;6414;49.570;6.060;2022-10-31T12:25:00;14.50;99.90
12700;DHT22;6414;49.570;6.060;2022-10-31T12:30:46;14.50;99.90
12700;DHT22;6414;49.570;6.060;2022-10-31T12:36:36;14.40;99.90
12700;DHT22;6414;49.570;6.060;2022-10-31T12:39:35;14.90;99.90
12700;DHT22;6414;49.570;6.060;2022-10-31T12:42:35;15.30;99.90
12700;DHT22;6414;49.570;6.060;2022-10-31T12:48:00;15.50;99.90
12700;DHT22;6414;49.570;6.060;2022-10-31T12:53:57;15.90;99.90
12700;DHT22;6414;49.570;6.060;2022-10-31T12:59:51;16.10;99.90
12700;DHT22;6414;49.570;6.060;2022-10-31T13:02:33;16.10;99.90
12700;DHT22;6414;49.570;6.060;2022-10-31T13:05:33;16.20;99.90
12700;DHT22;6414;49.570;6.060;2022-10-31T13:08:18;16.20;99.90
12700;DHT22;6414;49.570;6.060;2022-10-31T13:14:11;15.70;99.90
12700;DHT22;6414;49.570;6.060;2022-10-31T13:16:54;15.60;99.90
12700;DHT22;6414;49.570;6.060;2022-10-31T13:19:40;15.60;99.90
12700;DHT22;6414;49.570;6.060;2022-10-31T13:22:29;15.50;99.90
12700;DHT22;6414;49.570;6.060;2022-10-31T13:25:17;15.60;99.90
12700;DHT22;6414;49.570;6.060;2022-10-31T13:28:03;15.80;99.90
12700;DHT22;6414;49.570;6.060;2022-10-31T13:30:47;16.20;99.90
12700;DHT22;6414;49.570;6.060;2022-10-31T13:37:01;16.30;99.90
12700;DHT22;6414;49.570;6.060;2022-10-31T13:39:23;16.30;99.90
12700;DHT22;6414;49.570;6.060;2022-10-31T13:42:29;16.30;99.90
12700;DHT22;6414;49.570;6.060;2022-10-31T13:45:18;16.40;99.90
12700;DHT22;6414;49.570;6.060;2022-10-31T13:47:59;16.50;99.90
12700;DHT22;6414;49.570;6.060;2022-10-31T13:51:00;16.50;99.90
12700;DHT22;6414;49.570;6.060;2022-10-31T13:56:36;16.20;99.90
12700;DHT22;6414;49.570;6.060;2022-10-31T13:59:28;16.20;99.90
12700;DHT22;6414;49.570;6.060;2022-10-31T14:02:14;16.30;99.90
12700;DHT22;6414;49.570;6.060;2022-10-31T14:05:53;16.50;99.90
12700;DHT22;6414;49.570;6.060;2022-10-31T14:07:53;16.50;99.90
12700;DHT22;6414;49.570;6.060;2022-10-31T14:10:39;16.50;99.90
12700;DHT22;6414;49.570;6.060;2022-10-31T14:16:28;16.60;99.90
12700;DHT22;6414;49.570;6.060;2022-10-31T14:19:14;16.50;99.90
12700;DHT22;6414;49.570;6.060;2022-10-31T14:21:58;16.60;99.90
12700;DHT22;6414;49.570;6.060;2022-10-31T14:24:44;16.60;99.90
12700;DHT22;6414;49.570;6.060;2022-10-31T14:27:33;16.60;99.90
12700;DHT22;6414;49.570;6.060;2022-10-31T14:30:19;16.60;99.90
12700;DHT22;6414;49.570;6.060;2022-10-31T14:33:09;16.70;99.90
12700;DHT22;6414;49.570;6.060;2022-10-31T14:35:55;16.80;99.90
12700;DHT22;6414;49.570;6.060;2022-10-31T14:39:02;16.80;99.90
12700;DHT22;6414;49.570;6.060;2022-10-31T14:42:06;16.80;99.90
12700;DHT22;6414;49.570;6.060;2022-10-31T14:51:17;17.00;99.90
12700;DHT22;6414;49.570;6.060;2022-10-31T14:54:02;17.00;99.90
12700;DHT22;6414;49.570;6.060;2022-10-31T14:56:53;17.00;99.90
12700;DHT22;6414;49.570;6.060;2022-10-31T14:59:37;16.80;99.90
12700;DHT22;6414;49.570;6.060;2022-10-31T15:02:26;16.80;99.90
12700;DHT22;6414;49.570;6.060;2022-10-31T15:05:10;16.70;99.90
12700;DHT22;6414;49.570;6.060;2022-10-31T15:07:55;16.60;99.90
12700;DHT22;6414;49.570;6.060;2022-10-31T15:10:44;16.40;99.90
12700;DHT22;6414;49.570;6.060;2022-10-31T15:13:25;16.30;99.90
12700;DHT22;6414;49.570;6.060;2022-10-31T15:16:12;16.20;99.90
12700;DHT22;6414;49.570;6.060;2022-10-31T15:19:04;16.10;99.90
12700;DHT22;6414;49.570;6.060;2022-10-31T15:21:45;16.20;99.90
12700;DHT22;6414;49.570;6.060;2022-10-31T15:24:33;16.00;99.90
12700;DHT22;6414;49.570;6.060;2022-10-31T15:27:17;16.00;99.90
12700;DHT22;6414;49.570;6.060;2022-10-31T15:30:01;16.00;99.90
12700;DHT22;6414;49.570;6.060;2022-10-31T15:32:47;16.00;99.90
12700;DHT22;6414;49.570;6.060;2022-10-31T15:35:32;15.90;99.90
12700;DHT22;6414;49.570;6.060;2022-10-31T15:38:18;15.70;99.90
12700;DHT22;6414;49.570;6.060;2022-10-31T15:41:18;15.70;99.90
12700;DHT22;6414;49.570;6.060;2022-10-31T15:43:50;15.60;99.90
12700;DHT22;6414;49.570;6.060;2022-10-31T15:46:35;15.60;99.90
12700;DHT22;6414;49.570;6.060;2022-10-31T15:49:26;15.50;99.90
12700;DHT22;6414;49.570;6.060;2022-10-31T15:52:17;15.30;99.90
12700;DHT22;6414;49.570;6.060;2022-10-31T15:55:02;15.20;99.90
12700;DHT22;6414;49.570;6.060;2022-10-31T15:57:47;15.20;99.90
12700;DHT22;6414;49.570;6.060;2022-10-31T16:00:32;15.20;99.90
12700;DHT22;6414;49.570;6.060;2022-10-31T16:03:24;15.10;99.90
12700;DHT22;6414;49.570;6.060;2022-10-31T16:06:18;15.10;99.90
12700;DHT22;6414;49.570;6.060;2022-10-31T16:08:54;15.10;99.90
12700;DHT22;6414;49.570;6.060;2022-10-31T16:11:39;15.10;99.90
12700;DHT22;6414;49.570;6.060;2022-10-31T16:14:28;15.10;99.90
12700;DHT22;6414;49.570;6.060;2022-10-31T16:17:13;15.00;99.90
12700;DHT22;6414;49.570;6.060;2022-10-31T16:19:59;15.00;99.90
12700;DHT22;6414;49.570;6.060;2022-10-31T16:22:46;14.90;99.90
12700;DHT22;6414;49.570;6.060;2022-10-31T16:25:29;14.90;99.90
12700;DHT22;6414;49.570;6.060;2022-10-31T16:28:18;15.00;99.90
12700;DHT22;6414;49.570;6.060;2022-10-31T16:31:00;14.80;99.90
12700;DHT22;6414;49.570;6.060;2022-10-31T16:33:45;14.80;99.90
12700;DHT22;6414;49.570;6.060;2022-10-31T16:36:31;14.70;99.90
12700;DHT22;6414;49.570;6.060;2022-10-31T16:39:16;14.70;99.90
12700;DHT22;6414;49.570;6.060;2022-10-31T16:42:02;14.70;99.90
12700;DHT22;6414;49.570;6.060;2022-10-31T16:44:48;14.60;99.90
12700;DHT22;6414;49.570;6.060;2022-10-31T16:47:33;14.50;99.90
12700;DHT22;6414;49.570;6.060;2022-10-31T16:50:23;14.40;99.90
12700;DHT22;6414;49.570;6.060;2022-10-31T16:53:07;14.40;99.90
12700;DHT22;6414;49.570;6.060;2022-10-31T16:55:54;14.40;99.90
12700;DHT22;6414;49.570;6.060;2022-10-31T16:58:38;14.30;99.90
12700;DHT22;6414;49.570;6.060;2022-10-31T17:01:23;14.20;99.90
12700;DHT22;6414;49.570;6.060;2022-10-31T17:04:11;14.10;99.90
12700;DHT22;6414;49.570;6.060;2022-10-31T17:06:55;14.00;99.90
12700;DHT22;6414;49.570;6.060;2022-10-31T17:09:40;14.00;99.90
12700;DHT22;6414;49.570;6.060;2022-10-31T17:12:26;13.90;99.90
12700;DHT22;6414;49.570;6.060;2022-10-31T17:15:19;13.70;99.90
12700;DHT22;6414;49.570;6.060;2022-10-31T17:18:01;13.70;99.90
12700;DHT22;6414;49.570;6.060;2022-10-31T17:20:46;13.70;99.90
12700;DHT22;6414;49.570;6.060;2022-10-31T17:23:32;13.70;99.90
12700;DHT22;6414;49.570;6.060;2022-10-31T17:26:18;13.50;99.90
12700;DHT22;6414;49.570;6.060;2022-10-31T17:29:04;13.40;99.90
12700;DHT22;6414;49.570;6.060;2022-10-31T17:31:49;13.40;99.90
12700;DHT22;6414;49.570;6.060;2022-10-31T17:34:36;13.50;99.90
12700;DHT22;6414;49.570;6.060;2022-10-31T17:37:21;13.50;99.90
12700;DHT22;6414;49.570;6.060;2022-10-31T17:40:06;13.60;99.90
12700;DHT22;6414;49.570;6.060;2022-10-31T17:42:52;13.60;99.90
12700;DHT22;6414;49.570;6.060;2022-10-31T17:45:38;13.70;99.90
12700;DHT22;6414;49.570;6.060;2022-10-31T17:48:23;13.60;99.90
12700;DHT22;6414;49.570;6.060;2022-10-31T17:51:09;13.60;99.90
12700;DHT22;6414;49.570;6.060;2022-10-31T17:53:56;13.60;99.90
12700;DHT22;6414;49.570;6.060;2022-10-31T17:56:40;13.60;99.90
12700;DHT22;6414;49.570;6.060;2022-10-31T17:59:26;13.80;99.90
12700;DHT22;6414;49.570;6.060;2022-10-31T18:02:12;13.80;99.90
12700;DHT22;6414;49.570;6.060;2022-10-31T18:04:57;13.80;99.90
12700;DHT22;6414;49.570;6.060;2022-10-31T18:07:42;13.80;99.90
12700;DHT22;6414;49.570;6.060;2022-10-31T18:10:28;13.70;99.90
12700;DHT22;6414;49.570;6.060;2022-10-31T18:13:13;13.50;99.90
12700;DHT22;6414;49.570;6.060;2022-10-31T18:15:59;13.50;99.90
12700;DHT22;6414;49.570;6.060;2022-10-31T18:18:48;13.40;99.90
12700;DHT22;6414;49.570;6.060;2022-10-31T18:21:30;13.40;99.90
12700;DHT22;6414;49.570;6.060;2022-10-31T18:24:15;13.30;99.90
12700;DHT22;6414;49.570;6.060;2022-10-31T18:27:01;13.30;99.90
12700;DHT22;6414;49.570;6.060;2022-10-31T18:29:46;13.30;99.90
12700;DHT22;6414;49.570;6.060;2022-10-31T18:32:31;13.40;99.90
12700;DHT22;6414;49.570;6.060;2022-10-31T18:35:17;13.40;99.90
12700;DHT22;6414;49.570;6.060;2022-10-31T18:38:02;13.40;99.90
12700;DHT22;6414;49.570;6.060;2022-10-31T18:40:47;13.40;99.90
12700;DHT22;6414;49.570;6.060;2022-10-31T18:43:33;13.40;99.90
12700;DHT22;6414;49.570;6.060;2022-10-31T18:46:19;13.50;99.90
12700;DHT22;6414;49.570;6.060;2022-10-31T18:49:04;13.50;99.90
12700;DHT22;6414;49.570;6.060;2022-10-31T18:51:50;13.50;99.90
12700;DHT22;6414;49.570;6.060;2022-10-31T18:54:36;13.30;99.90
12700;DHT22;6414;49.570;6.060;2022-10-31T18:57:21;13.30;99.90
12700;DHT22;6414;49.570;6.060;2022-10-31T19:00:07;13.30;99.90
12700;DHT22;6414;49.570;6.060;2022-10-31T19:02:52;13.20;99.90
12700;DHT22;6414;49.570;6.060;2022-10-31T19:05:38;13.20;99.90
12700;DHT22;6414;49.570;6.060;2022-10-31T19:08:24;13.30;99.90
12700;DHT22;6414;49.570;6.060;2022-10-31T19:11:10;13.30;99.90
12700;DHT22;6414;49.570;6.060;2022-10-31T19:13:55;13.30;99.90
12700;DHT22;6414;49.570;6.060;2022-10-31T19:16:40;13.30;99.90
12700;DHT22;6414;49.570;6.060;2022-10-31T19:19:26;13.30;99.90
12700;DHT22;6414;49.570;6.060;2022-10-31T19:22:11;13.30;99.90
12700;DHT22;6414;49.570;6.060;2022-10-31T19:24:57;13.30;99.90
12700;DHT22;6414;49.570;6.060;2022-10-31T19:27:42;13.30;99.90
12700;DHT22;6414;49.570;6.060;2022-10-31T19:30:28;13.30;99.90
12700;DHT22;6414;49.570;6.060;2022-10-31T19:33:14;13.30;99.90
12700;DHT22;6414;49.570;6.060;2022-10-31T19:36:06;13.30;99.90
12700;DHT22;6414;49.570;6.060;2022-10-31T19:38:54;13.40;99.90
12700;DHT22;6414;49.570;6.060;2022-10-31T19:41:39;13.50;99.90
12700;DHT22;6414;49.570;6.060;2022-10-31T19:44:24;13.40;99.90
12700;DHT22;6414;49.570;6.060;2022-10-31T19:47:10;13.30;99.90
12700;DHT22;6414;49.570;6.060;2022-10-31T19:49:56;13.30;99.90
12700;DHT22;6414;49.570;6.060;2022-10-31T19:52:41;13.30;99.90
12700;DHT22;6414;49.570;6.060;2022-10-31T19:55:27;13.30;99.90
12700;DHT22;6414;49.570;6.060;2022-10-31T19:58:13;13.20;99.90
12700;DHT22;6414;49.570;6.060;2022-10-31T20:00:58;13.20;99.90
12700;DHT22;6414;49.570;6.060;2022-10-31T20:03:44;13.20;99.90
12700;DHT22;6414;49.570;6.060;2022-10-31T20:06:32;13.30;99.90
12700;DHT22;6414;49.570;6.060;2022-10-31T20:09:16;13.30;99.90
12700;DHT22;6414;49.570;6.060;2022-10-31T20:12:02;13.30;99.90
12700;DHT22;6414;49.570;6.060;2022-10-31T20:14:48;13.20;99.90
12700;DHT22;6414;49.570;6.060;2022-10-31T20:17:33;13.20;99.90
12700;DHT22;6414;49.570;6.060;2022-10-31T20:20:18;13.30;99.90
12700;DHT22;6414;49.570;6.060;2022-10-31T20:23:04;13.30;99.90
12700;DHT22;6414;49.570;6.060;2022-10-31T20:25:50;13.20;99.90
12700;DHT22;6414;49.570;6.060;2022-10-31T20:28:36;13.30;99.90
12700;DHT22;6414;49.570;6.060;2022-10-31T20:31:22;13.30;99.90
12700;DHT22;6414;49.570;6.060;2022-10-31T20:34:07;13.20;99.90
12700;DHT22;6414;49.570;6.060;2022-10-31T20:36:52;13.20;99.90
12700;DHT22;6414;49.570;6.060;2022-10-31T20:39:38;13.20;99.90
12700;DHT22;6414;49.570;6.060;2022-10-31T20:42:24;13.20;99.90
12700;DHT22;6414;49.570;6.060;2022-10-31T20:45:09;13.30;99.90
12700;DHT22;6414;49.570;6.060;2022-10-31T20:47:55;13.20;99.90
12700;DHT22;6414;49.570;6.060;2022-10-31T20:50:40;13.20;99.90
12700;DHT22;6414;49.570;6.060;2022-10-31T20:53:25;13.20;99.90
12700;DHT22;6414;49.570;6.060;2022-10-31T20:56:14;13.30;99.90
12700;DHT22;6414;49.570;6.060;2022-10-31T20:58:59;13.30;99.90
12700;DHT22;6414;49.570;6.060;2022-10-31T21:01:44;13.30;99.90
12700;DHT22;6414;49.570;6.060;2022-10-31T21:04:30;13.40;99.90
12700;DHT22;6414;49.570;6.060;2022-10-31T21:07:15;13.40;99.90
12700;DHT22;6414;49.570;6.060;2022-10-31T21:10:00;13.30;99.90
12700;DHT22;6414;49.570;6.060;2022-10-31T21:12:45;13.30;99.90
12700;DHT22;6414;49.570;6.060;2022-10-31T21:15:31;13.30;99.90
12700;DHT22;6414;49.570;6.060;2022-10-31T21:18:16;13.20;99.90
12700;DHT22;6414;49.570;6.060;2022-10-31T21:21:08;13.30;99.90
12700;DHT22;6414;49.570;6.060;2022-10-31T21:23:56;13.40;99.90
12700;DHT22;6414;49.570;6.060;2022-10-31T21:26:42;13.40;99.90
12700;DHT22;6414;49.570;6.060;2022-10-31T21:29:26;13.50;99.90
12700;DHT22;6414;49.570;6.060;2022-10-31T21:32:14;13.60;99.90
12700;DHT22;6414;49.570;6.060;2022-10-31T21:35:00;13.60;99.90
12700;DHT22;6414;49.570;6.060;2022-10-31T21:37:45;13.60;99.90
12700;DHT22;6414;49.570;6.060;2022-10-31T21:40:31;13.60;99.90
12700;DHT22;6414;49.570;6.060;2022-10-31T21:43:16;13.50;99.90
12700;DHT22;6414;49.570;6.060;2022-10-31T21:46:14;13.60;99.90
12700;DHT22;6414;49.570;6.060;2022-10-31T21:49:00;13.60;99.90
12700;DHT22;6414;49.570;6.060;2022-10-31T21:51:43;13.80;99.90
12700;DHT22;6414;49.570;6.060;2022-10-31T21:54:28;13.80;99.90
12700;DHT22;6414;49.570;6.060;2022-10-31T21:57:14;13.90;99.90
12700;DHT22;6414;49.570;6.060;2022-10-31T21:59:59;13.90;99.90
12700;DHT22;6414;49.570;6.060;2022-10-31T22:02:44;14.10;99.90